createdAt,value
2022-10-05T00:01:27.451Z,101556.75
2022-10-05T00:04:03.565Z,101561.50
2022-10-05T00:06:31.924Z,101544.59
2022-10-05T00:09:02.515Z,101550.75
2022-10-05T00:11:30.598Z,101545.31
2022-10-05T00:13:59.891Z,101533.75
2022-10-05T00:16:28.171Z,101527.75
2022-10-05T00:18:56.443Z,101523.19
2022-10-05T00:21:28.339Z,101526.13
2022-10-05T00:24:03.276Z,101542.25
2022-10-05T00:26:34.622Z,101544.78
2022-10-05T00:29:07.173Z,101512.84
2022-10-05T00:31:37.486Z,101525.81
2022-10-05T00:34:05.923Z,101513.25
2022-10-05T00:36:34.177Z,101523.97
2022-10-05T00:39:05.382Z,101519.25
2022-10-05T00:41:47.942Z,101520.16
2022-10-05T00:44:37.319Z,101515.00
2022-10-05T00:47:19.388Z,101512.16
2022-10-05T00:50:29.858Z,101494.41
2022-10-05T00:53:06.955Z,101496.00
2022-10-05T00:55:51.918Z,101494.34
2022-10-05T00:58:34.505Z,101484.34
2022-10-05T01:01:12.111Z,101398.63
2022-10-05T01:03:53.135Z,101361.31
2022-10-05T01:06:25.282Z,101482.69
2022-10-05T01:09:04.165Z,101453.50
2022-10-05T01:11:41.254Z,101460.53
2022-10-05T01:14:19.792Z,101452.44
2022-10-05T01:16:57.290Z,101455.16
2022-10-05T01:19:51.842Z,101449.97
2022-10-05T01:22:39.454Z,101456.16
2022-10-05T01:25:23.813Z,101457.84
2022-10-05T01:28:04.165Z,101458.06
2022-10-05T01:30:39.280Z,101461.63
2022-10-05T01:33:17.864Z,101453.81
2022-10-05T01:35:57.088Z,101472.66
2022-10-05T01:38:42.344Z,101450.13
2022-10-05T01:41:26.991Z,101452.72
2022-10-05T01:44:02.377Z,101430.44
2022-10-05T01:46:37.663Z,101426.13
2022-10-05T01:49:33.263Z,101410.22
2022-10-05T01:52:24.861Z,101408.44
2022-10-05T01:55:10.575Z,101424.72
2022-10-05T01:57:57.483Z,101426.53
2022-10-05T02:00:27.827Z,101402.34
2022-10-05T02:03:00.944Z,101386.28
2022-10-05T02:05:38.691Z,101376.94
2022-10-05T02:08:13.405Z,101397.16
2022-10-05T02:10:46.035Z,101370.69
2022-10-05T02:13:19.828Z,101386.34
2022-10-05T02:15:54.800Z,101370.44
2022-10-05T02:18:28.455Z,101376.78
2022-10-05T02:20:59.605Z,101385.66
2022-10-05T02:23:33.931Z,101388.19
2022-10-05T02:26:03.220Z,101387.53
2022-10-05T02:28:38.793Z,101386.50
2022-10-05T02:31:12.670Z,101388.19
2022-10-05T02:33:41.402Z,101382.81
2022-10-05T02:36:19.178Z,101367.69
2022-10-05T02:39:02.107Z,101381.94
2022-10-05T02:41:44.118Z,101362.41
2022-10-05T02:44:23.023Z,101378.47
2022-10-05T02:47:00.755Z,101377.63
2022-10-05T02:49:40.263Z,101376.72
2022-10-05T02:52:15.229Z,101380.28
2022-10-05T02:54:54.473Z,101381.19
2022-10-05T02:57:29.849Z,101373.28
2022-10-05T03:00:07.154Z,101350.38
2022-10-05T03:02:45.594Z,101374.88
2022-10-05T03:05:22.234Z,101386.44
2022-10-05T03:07:59.810Z,101376.59
2022-10-05T03:10:36.728Z,101371.28
2022-10-05T03:13:14.095Z,101368.44
2022-10-05T03:16:04.812Z,101357.16
2022-10-05T03:18:53.183Z,101360.53
2022-10-05T03:21:52.549Z,101360.66
2022-10-05T03:24:45.068Z,101363.59
2022-10-05T03:27:26.761Z,101353.88
2022-10-05T03:30:05.621Z,101346.44
2022-10-05T03:32:47.685Z,101343.09
2022-10-05T03:35:23.002Z,101358.94
2022-10-05T03:38:04.404Z,101322.78
2022-10-05T03:40:41.230Z,101355.25
2022-10-05T03:43:56.288Z,101352.63
2022-10-05T03:46:40.802Z,101341.25
2022-10-05T03:49:18.910Z,101341.50
2022-10-05T03:51:53.922Z,101345.66
2022-10-05T03:54:27.226Z,101344.81
2022-10-05T03:56:59.555Z,101343.19
2022-10-05T03:59:32.919Z,101343.09
2022-10-05T04:02:07.304Z,101350.22
2022-10-05T04:04:40.996Z,101324.03
2022-10-05T04:07:28.884Z,101342.28
2022-10-05T04:09:58.460Z,101343.81
2022-10-05T04:12:31.809Z,101351.91
2022-10-05T04:15:05.239Z,101343.81
2022-10-05T04:17:37.961Z,101342.09
2022-10-05T04:20:15.990Z,101336.09
2022-10-05T04:22:57.169Z,101330.75
2022-10-05T04:25:30.860Z,101333.31
2022-10-05T04:28:07.751Z,101323.63
2022-10-05T04:30:43.133Z,101316.59
2022-10-05T04:33:13.667Z,101317.31
2022-10-05T04:36:01.783Z,101280.44
2022-10-05T04:38:57.763Z,101311.03
2022-10-05T04:41:49.763Z,101311.97
2022-10-05T04:44:36.723Z,101303.16
2022-10-05T04:47:23.731Z,101293.56
2022-10-05T04:50:16.543Z,101319.47
2022-10-05T04:53:07.198Z,101299.91
2022-10-05T04:55:47.969Z,101294.75
2022-10-05T04:58:27.894Z,101289.53
2022-10-05T05:01:14.283Z,101272.69
2022-10-05T05:04:03.498Z,101299.66
2022-10-05T05:06:40.361Z,101288.88
2022-10-05T05:09:43.253Z,101272.78
2022-10-05T05:12:25.874Z,101297.69
2022-10-05T05:15:14.148Z,101264.75
2022-10-05T05:18:03.358Z,101268.13
2022-10-05T05:20:49.346Z,101268.94
2022-10-05T05:23:27.139Z,101273.19
2022-10-05T05:26:08.406Z,101270.66
2022-10-05T05:28:49.498Z,101275.03
2022-10-05T05:31:29.189Z,101250.28
2022-10-05T05:34:06.475Z,101275.00
2022-10-05T05:36:50.392Z,101282.91
2022-10-05T05:39:27.412Z,101280.28
2022-10-05T05:42:12.482Z,101283.91
2022-10-05T05:44:48.718Z,101271.47
2022-10-05T05:47:22.172Z,101246.72
2022-10-05T05:50:20.386Z,101275.94
2022-10-05T05:52:56.441Z,101278.59
2022-10-05T05:55:30.937Z,101271.38
2022-10-05T05:58:12.438Z,101279.44
2022-10-05T06:00:50.809Z,101267.75
2022-10-05T06:03:26.340Z,101203.13
2022-10-05T06:05:59.919Z,101233.34
2022-10-05T06:08:39.267Z,101243.22
2022-10-05T06:11:23.165Z,101280.28
2022-10-05T06:13:52.579Z,101279.50
2022-10-05T06:16:26.596Z,101282.84
2022-10-05T06:19:00.467Z,101277.59
2022-10-05T06:21:35.846Z,101273.28
2022-10-05T06:24:12.350Z,101276.25
2022-10-05T06:27:17.785Z,101286.06
2022-10-05T06:30:05.979Z,101285.94
2022-10-05T06:32:57.331Z,101280.59
2022-10-05T06:35:44.369Z,101280.50
2022-10-05T06:38:43.307Z,101277.84
2022-10-05T06:41:20.968Z,101278.59
2022-10-05T06:43:58.729Z,101268.94
2022-10-05T06:46:56.846Z,101285.84
2022-10-05T06:49:54.559Z,101285.78
2022-10-05T06:53:06.855Z,101279.81
2022-10-05T06:55:46.775Z,101277.75
2022-10-05T06:58:32.255Z,101291.88
2022-10-05T07:01:06.760Z,101279.50
2022-10-05T07:03:51.261Z,101285.69
2022-10-05T07:06:26.904Z,101287.31
2022-10-05T07:09:16.086Z,101281.78
2022-10-05T07:12:17.160Z,101279.97
2022-10-05T07:15:08.439Z,101283.78
2022-10-05T07:17:51.756Z,101273.78
2022-10-05T07:20:29.682Z,101279.03
2022-10-05T07:23:30.473Z,101275.44
2022-10-05T07:26:06.262Z,101268.19
2022-10-05T07:28:45.961Z,101266.47
2022-10-05T07:31:26.232Z,101267.56
2022-10-05T07:34:02.283Z,101277.50
2022-10-05T07:36:59.129Z,101270.31
2022-10-05T07:39:59.213Z,101277.44
2022-10-05T07:42:50.677Z,101277.66
2022-10-05T07:45:30.341Z,101264.19
2022-10-05T07:48:10.619Z,101280.19
2022-10-05T07:50:50.198Z,101274.94
2022-10-05T07:53:24.749Z,101260.56
2022-10-05T07:55:57.509Z,101267.75
2022-10-05T07:58:33.382Z,101268.63
2022-10-05T08:01:19.201Z,101268.63
2022-10-05T08:03:55.004Z,101265.97
2022-10-05T08:06:45.241Z,101264.13
2022-10-05T08:09:36.190Z,101265.06
2022-10-05T08:12:32.157Z,101274.03
2022-10-05T08:15:08.118Z,101254.25
2022-10-05T08:17:51.824Z,101251.53
2022-10-05T08:20:34.923Z,101256.88
2022-10-05T08:23:16.660Z,101256.88
2022-10-05T08:25:55.577Z,101259.75
2022-10-05T08:28:29.788Z,101209.38
2022-10-05T08:31:05.978Z,101245.44
2022-10-05T08:33:46.270Z,101246.22
2022-10-05T08:36:17.069Z,101255.72
2022-10-05T08:38:45.605Z,101239.72
2022-10-05T08:42:20.279Z,101230.78
2022-10-05T08:45:45.459Z,101242.22
2022-10-05T08:49:04.419Z,101233.97
2022-10-05T08:52:36.758Z,101232.97
2022-10-05T08:55:53.455Z,101228.63
2022-10-05T08:59:16.157Z,101235.47
2022-10-05T09:02:15.345Z,101234.59
2022-10-05T09:05:10.195Z,101221.22
2022-10-05T09:08:26.198Z,101210.38
2022-10-05T09:11:06.943Z,101214.69
2022-10-05T09:13:57.491Z,101208.88
2022-10-05T09:16:56.306Z,101212.44
2022-10-05T09:19:54.791Z,101223.16
2022-10-05T09:22:38.391Z,101218.53
2022-10-05T09:25:22.814Z,101207.16
2022-10-05T09:27:57.661Z,101216.75
2022-10-05T09:30:39.929Z,101206.16
2022-10-05T09:33:53.859Z,101206.16
2022-10-05T09:37:14.784Z,101221.16
2022-10-05T09:40:27.389Z,101207.88
2022-10-05T09:43:44.633Z,101233.16
2022-10-05T09:46:45.232Z,101219.81
2022-10-05T09:50:20.683Z,101211.66
2022-10-05T09:53:27.866Z,101218.47
2022-10-05T09:56:20.323Z,101223.88
2022-10-05T09:59:51.880Z,101220.47
2022-10-05T10:02:38.786Z,101210.00
2022-10-05T10:05:40.032Z,101212.91
2022-10-05T10:08:36.375Z,101209.22
2022-10-05T10:11:29.630Z,101202.91
2022-10-05T10:14:26.013Z,101206.47
2022-10-05T10:17:32.010Z,101198.50
2022-10-05T10:20:27.825Z,101198.59
2022-10-05T10:23:17.917Z,101200.94
2022-10-05T10:26:34.399Z,101201.34
2022-10-05T10:29:45.882Z,101191.41
2022-10-05T10:32:45.142Z,101189.56
2022-10-05T10:35:32.097Z,101200.63
2022-10-05T10:38:34.505Z,101164.53
2022-10-05T10:41:59.180Z,101177.47
2022-10-05T10:44:58.971Z,101176.66
2022-10-05T10:47:45.487Z,101204.06
2022-10-05T10:51:10.563Z,101194.09
2022-10-05T10:54:29.748Z,101200.50
2022-10-05T10:57:06.390Z,101188.78
2022-10-05T11:00:28.509Z,101210.88
2022-10-05T11:03:47.946Z,101198.44
2022-10-05T11:06:42.966Z,101193.03
2022-10-05T11:09:52.658Z,101192.91
2022-10-05T11:13:00.736Z,101183.09
2022-10-05T11:16:21.116Z,101203.50
2022-10-05T11:19:20.348Z,101196.47
2022-10-05T11:22:09.631Z,101192.84
2022-10-05T11:25:10.261Z,101194.50
2022-10-05T11:28:01.311Z,101170.47
2022-10-05T11:31:32.106Z,101189.03
2022-10-05T11:34:44.999Z,101176.44
2022-10-05T11:37:50.485Z,101175.75
2022-10-05T11:40:53.188Z,101166.72
2022-10-05T11:43:54.299Z,101168.38
2022-10-05T11:46:31.405Z,101163.59
2022-10-05T11:49:29.030Z,101155.56
2022-10-05T11:52:07.840Z,101161.00
2022-10-05T11:55:11.769Z,101167.84
2022-10-05T11:57:50.296Z,101159.50
2022-10-05T12:00:22.043Z,101137.50
2022-10-05T12:03:22.466Z,101148.09
2022-10-05T12:06:13.747Z,101162.94
2022-10-05T12:08:58.180Z,101142.41
2022-10-05T12:11:48.238Z,101157.66
2022-10-05T12:14:29.011Z,101153.25
2022-10-05T12:17:00.371Z,101155.22
2022-10-05T12:19:36.528Z,101148.22
2022-10-05T12:22:15.440Z,101141.59
2022-10-05T12:25:13.775Z,101124.94
2022-10-05T12:27:46.318Z,101145.22
2022-10-05T12:30:19.202Z,101124.69
2022-10-05T12:33:01.849Z,101118.50
2022-10-05T12:35:54.778Z,101121.59
2022-10-05T12:38:29.817Z,101138.00
2022-10-05T12:41:10.728Z,101138.00
2022-10-05T12:43:53.801Z,101143.94
2022-10-05T12:46:34.078Z,101109.03
2022-10-05T12:49:25.785Z,101130.78
2022-10-05T12:51:59.650Z,101125.38
2022-10-05T12:54:43.643Z,101127.72
2022-10-05T12:57:21.295Z,101122.59
2022-10-05T12:59:57.222Z,101142.97
2022-10-05T13:02:39.027Z,101132.13
2022-10-05T13:05:23.401Z,101138.03
2022-10-05T13:08:12.561Z,101122.16
2022-10-05T13:10:47.677Z,101122.94
2022-10-05T13:13:38.294Z,101137.41
2022-10-05T13:16:20.634Z,101123.66
2022-10-05T13:19:00.343Z,101111.16
2022-10-05T13:21:55.231Z,101120.56
2022-10-05T13:24:31.443Z,101116.84
2022-10-05T13:27:05.209Z,101127.34
2022-10-05T13:29:41.053Z,101129.81
2022-10-05T13:32:16.965Z,101131.63
2022-10-05T13:34:52.754Z,101103.44
2022-10-05T13:37:32.842Z,101117.78
2022-10-05T13:40:18.693Z,101131.50
2022-10-05T13:42:54.098Z,101083.53
2022-10-05T13:45:25.271Z,101000.72
2022-10-05T13:48:11.674Z,101107.88
2022-10-05T13:50:48.012Z,101142.31
2022-10-05T13:53:26.586Z,101105.44
2022-10-05T13:56:00.922Z,101126.38
2022-10-05T13:58:42.760Z,101129.31
2022-10-05T14:01:19.859Z,101119.25
2022-10-05T14:04:10.129Z,101134.88
2022-10-05T14:06:39.380Z,101099.53
2022-10-05T14:09:15.826Z,101134.88
2022-10-05T14:11:52.984Z,101114.31
2022-10-05T14:14:28.265Z,101131.16
2022-10-05T14:16:59.216Z,101113.09
2022-10-05T14:19:33.091Z,101115.84
2022-10-05T14:22:04.263Z,101124.94
2022-10-05T14:24:44.461Z,101127.31
2022-10-05T14:27:22.534Z,101094.31
2022-10-05T14:30:00.749Z,101105.88
2022-10-05T14:32:33.101Z,101147.13
2022-10-05T14:35:15.005Z,101099.59
2022-10-05T14:37:52.570Z,101131.78
2022-10-05T14:40:29.432Z,101091.91
2022-10-05T14:43:02.110Z,101100.78
2022-10-05T14:45:31.121Z,101105.34
2022-10-05T14:48:12.259Z,101102.44
2022-10-05T14:50:55.942Z,101086.28
2022-10-05T14:53:26.219Z,101099.88
2022-10-05T14:56:36.469Z,101131.78
2022-10-05T15:00:05.522Z,101136.19
2022-10-05T15:03:18.682Z,101100.38
2022-10-05T15:05:51.971Z,101111.16
2022-10-05T15:08:41.376Z,101130.97
2022-10-05T15:11:14.427Z,101131.16
2022-10-05T15:13:46.218Z,101110.28
2022-10-05T15:16:21.886Z,101128.16
2022-10-05T15:18:59.015Z,101129.88
2022-10-05T15:21:45.057Z,101124.56
2022-10-05T15:24:20.247Z,101123.94
2022-10-05T15:26:51.878Z,101126.63
2022-10-05T15:29:52.185Z,101122.84
2022-10-05T15:32:38.012Z,101139.84
2022-10-05T15:35:35.187Z,101123.84
2022-10-05T15:38:17.756Z,101131.09
2022-10-05T15:40:59.533Z,101126.50
2022-10-05T15:43:40.414Z,101131.16
2022-10-05T15:46:14.926Z,101141.13
2022-10-05T15:48:55.660Z,101141.13
2022-10-05T15:51:31.937Z,101125.59
2022-10-05T15:54:24.685Z,101139.28
2022-10-05T15:56:58.949Z,101151.03
2022-10-05T15:59:37.522Z,101134.31
2022-10-05T16:02:16.842Z,101052.78
2022-10-05T16:05:01.092Z,101147.06
2022-10-05T16:07:58.303Z,101131.38
2022-10-05T16:10:27.789Z,101137.41
2022-10-05T16:13:16.079Z,101155.16
2022-10-05T16:15:50.140Z,101140.03
2022-10-05T16:18:43.531Z,101137.47
2022-10-05T16:21:26.959Z,101157.09
2022-10-05T16:24:09.512Z,101149.66
2022-10-05T16:26:57.656Z,101144.38
2022-10-05T16:29:40.233Z,101160.53
2022-10-05T16:32:15.485Z,101147.38
2022-10-05T16:34:59.036Z,101158.13
2022-10-05T16:37:41.234Z,101161.69
2022-10-05T16:40:21.087Z,101160.00
2022-10-05T16:43:02.242Z,101163.47
2022-10-05T16:45:52.492Z,101152.88
2022-10-05T16:48:27.435Z,101137.78
2022-10-05T16:51:17.174Z,101172.63
2022-10-05T16:54:02.946Z,101161.13
2022-10-05T16:56:40.446Z,101163.72
2022-10-05T16:59:46.868Z,101165.41
2022-10-05T17:02:33.132Z,101158.38
2022-10-05T17:05:18.282Z,101176.06
2022-10-05T17:07:59.878Z,101155.63
2022-10-05T17:10:50.338Z,101185.22
2022-10-05T17:13:56.558Z,101178.94
2022-10-05T17:16:39.121Z,101186.72
2022-10-05T17:19:34.228Z,101197.38
2022-10-05T17:22:12.711Z,101198.34
2022-10-05T17:24:55.610Z,101177.13
2022-10-05T17:27:35.616Z,101183.56
2022-10-05T17:30:39.276Z,101177.22
2022-10-05T17:33:24.765Z,101217.19
2022-10-05T17:36:16.899Z,101179.22
2022-10-05T17:38:53.961Z,101205.22
2022-10-05T17:41:25.743Z,101201.91
2022-10-05T17:44:26.123Z,101210.69
2022-10-05T17:46:57.520Z,101232.97
2022-10-05T17:50:10.043Z,101234.59
2022-10-05T17:52:59.990Z,101233.78
2022-10-05T17:55:48.380Z,101236.38
2022-10-05T17:59:02.009Z,101254.53
2022-10-05T18:01:37.687Z,101253.00
2022-10-05T18:04:39.276Z,101247.22
2022-10-05T18:07:24.003Z,101271.78
2022-10-05T18:10:22.300Z,101274.44
2022-10-05T18:13:21.075Z,101277.19
2022-10-05T18:15:50.416Z,101288.94
2022-10-05T18:18:55.864Z,101281.09
2022-10-05T18:21:37.920Z,101269.53
2022-10-05T18:24:53.131Z,101281.13
2022-10-05T18:28:08.071Z,101287.75
2022-10-05T18:30:54.133Z,101202.06
2022-10-05T18:33:51.353Z,101307.78
2022-10-05T18:36:48.504Z,101322.13
2022-10-05T18:39:38.727Z,101340.25
2022-10-05T18:42:20.155Z,101347.78
2022-10-05T18:44:54.755Z,101357.53
2022-10-05T18:47:32.284Z,101365.69
2022-10-05T18:50:21.278Z,101355.97
2022-10-05T18:53:07.750Z,101385.16
2022-10-05T18:55:40.278Z,101378.03
2022-10-05T18:58:17.179Z,101399.34
2022-10-05T19:01:30.609Z,101409.28
2022-10-05T19:04:15.293Z,101370.81
2022-10-05T19:06:56.642Z,101405.13
2022-10-05T19:09:49.740Z,101410.59
2022-10-05T19:12:32.895Z,101427.81
2022-10-05T19:15:15.873Z,101432.66
2022-10-05T19:18:09.027Z,101444.00
2022-10-05T19:20:42.999Z,101438.53
2022-10-05T19:23:36.926Z,101458.84
2022-10-05T19:26:15.714Z,101464.41
2022-10-05T19:28:59.223Z,101465.94
2022-10-05T19:31:37.997Z,101474.63
2022-10-05T19:34:31.215Z,101482.59
2022-10-05T19:37:08.012Z,101470.19
2022-10-05T19:39:50.489Z,101490.47
2022-10-05T19:42:46.194Z,101492.22
2022-10-05T19:45:22.954Z,101494.94
2022-10-05T19:48:08.551Z,101501.19
2022-10-05T19:50:39.885Z,101502.97
2022-10-05T19:53:15.512Z,101511.84
2022-10-05T19:55:47.307Z,101520.88
2022-10-05T19:58:22.623Z,101522.81
2022-10-05T20:00:57.489Z,101534.56
2022-10-05T20:03:29.407Z,101533.31
2022-10-05T20:05:59.881Z,101563.44
2022-10-05T20:08:32.107Z,101573.72
2022-10-05T20:11:11.890Z,101582.16
2022-10-05T20:13:41.891Z,101555.25
2022-10-05T20:16:39.647Z,101579.19
2022-10-05T20:19:46.947Z,101575.03
2022-10-05T20:22:27.690Z,101544.91
2022-10-05T20:24:56.880Z,101572.13
2022-10-05T20:27:47.271Z,101590.91
2022-10-05T20:30:18.913Z,101593.34
2022-10-05T20:32:49.251Z,101601.41
2022-10-05T20:35:18.157Z,101587.78
2022-10-05T20:37:46.652Z,101589.41
2022-10-05T20:40:17.754Z,101595.41
2022-10-05T20:42:47.877Z,101596.91
2022-10-05T20:45:17.277Z,101595.03
2022-10-05T20:47:46.664Z,101610.84
2022-10-05T20:50:16.078Z,101591.59
2022-10-05T20:52:44.526Z,101615.34
2022-10-05T20:55:14.065Z,101630.34
2022-10-05T20:57:42.633Z,101633.72
2022-10-05T21:00:14.841Z,101629.13
2022-10-05T21:02:43.142Z,101639.00
2022-10-05T21:05:11.609Z,101646.03
2022-10-05T21:07:40.927Z,101639.91
2022-10-05T21:10:10.247Z,101645.41
2022-10-05T21:12:38.713Z,101649.09
2022-10-05T21:15:08.294Z,101632.31
2022-10-05T21:17:38.848Z,101668.56
2022-10-05T21:20:11.513Z,101671.19
2022-10-05T21:22:39.878Z,101652.16
2022-10-05T21:25:09.068Z,101672.69
2022-10-05T21:27:37.561Z,101689.44
2022-10-05T21:30:06.954Z,101691.03
2022-10-05T21:32:40.599Z,101706.19
2022-10-05T21:35:11.652Z,101713.25
2022-10-05T21:37:40.035Z,101724.94
2022-10-05T21:40:09.394Z,101732.06
2022-10-05T21:42:37.835Z,101725.91
2022-10-05T21:45:08.019Z,101705.69
2022-10-05T21:47:37.936Z,101729.63
2022-10-05T21:50:08.572Z,101745.63
2022-10-05T21:52:36.866Z,101743.63
2022-10-05T21:55:07.066Z,101745.63
2022-10-05T21:57:36.819Z,101742.09
2022-10-05T22:00:08.153Z,101762.34
2022-10-05T22:02:37.833Z,101750.09
2022-10-05T22:05:06.394Z,101753.81
2022-10-05T22:07:35.022Z,101672.53
2022-10-05T22:10:05.721Z,101719.22
2022-10-05T22:12:34.626Z,101772.28
2022-10-05T22:15:03.107Z,101777.69
2022-10-05T22:17:32.124Z,101772.94
2022-10-05T22:20:02.370Z,101788.88
2022-10-05T22:22:31.152Z,101767.56
2022-10-05T22:24:59.567Z,101791.63
2022-10-05T22:27:30.663Z,101795.16
2022-10-05T22:29:59.544Z,101797.88
2022-10-05T22:32:27.822Z,101806.00
2022-10-05T22:34:56.264Z,101816.69
2022-10-05T22:37:25.940Z,101811.50
2022-10-05T22:39:55.205Z,101816.09
2022-10-05T22:42:23.566Z,101756.88
2022-10-05T22:44:51.859Z,101825.91
2022-10-05T22:47:20.150Z,101842.84
2022-10-05T22:49:48.440Z,101839.31
2022-10-05T22:52:16.891Z,101718.28
2022-10-05T22:54:46.529Z,101842.19
2022-10-05T22:57:14.880Z,101839.38
2022-10-05T22:59:43.141Z,101842.03
2022-10-05T23:02:12.406Z,101852.75
2022-10-05T23:04:40.821Z,101865.84
2022-10-05T23:07:09.122Z,101859.94
2022-10-05T23:09:37.997Z,101869.75
2022-10-05T23:12:07.959Z,101864.47
2022-10-05T23:14:36.189Z,101878.81
2022-10-05T23:17:04.542Z,101880.66
2022-10-05T23:19:32.934Z,101878.22
2022-10-05T23:22:01.209Z,101815.34
2022-10-05T23:24:29.479Z,101893.25
2022-10-05T23:26:57.702Z,101903.91
2022-10-05T23:29:28.639Z,101902.19
2022-10-05T23:31:57.121Z,101889.91
2022-10-05T23:34:27.258Z,101914.56
2022-10-05T23:36:55.503Z,101916.50
2022-10-05T23:39:25.352Z,101918.34
2022-10-05T23:41:53.812Z,101923.69
2022-10-05T23:44:23.099Z,101941.47
2022-10-05T23:46:52.833Z,101923.56
2022-10-05T23:49:21.203Z,101945.00
2022-10-05T23:51:49.599Z,101947.63
2022-10-05T23:54:17.943Z,101900.91
2022-10-05T23:56:46.137Z,101966.50
2022-10-05T23:59:14.364Z,101962.97
